Time;durP1;ratioP1;P1;durP2;ratioP2;P2;SDS_P1;SDS_P2;PMS_P1;PMS_P2;Temp;Humidity;BMP_temperature;BMP_pressure;BME280_temperature;BME280_humidity;BME280_pressure;Samples;Min_cycle;Max_cycle;Signal;HPM_P1;HPM_P2
2023/10/18 04:13:58;;;;;;;;;;;8.10;99.90;;;;;;2607074;54;20033;-72
2023/10/18 04:16:30;;;;;;;;;;;8.10;99.90;;;;;;2616594;54;19984;-82
2023/10/18 04:19:02;;;;;;;;;;;8.10;99.90;;;;;;2620799;47;19951;-78
2023/10/18 04:21:32;;;;;;;;;;;8.10;99.90;;;;;;2620478;47;19954;-79
2023/10/18 04:24:04;;;;;;;;;;;8.10;99.90;;;;;;2620110;39;20452;-80
2023/10/18 04:29:22;;;;;;;;;;;8.00;99.90;;;;;;2616791;54;20075;-73
2023/10/18 04:31:52;;;;;;;;;;;8.00;99.90;;;;;;2616910;47;19955;-74
2023/10/18 04:34:24;;;;;;;;;;;8.00;99.90;;;;;;2617004;54;19954;-73
2023/10/18 04:36:55;;;;;;;;;;;8.00;99.90;;;;;;2616299;47;19953;-71
2023/10/18 04:39:27;;;;;;;;;;;8.00;99.90;;;;;;2615852;47;19953;-72
2023/10/18 04:41:57;;;;;;;;;;;8.10;99.90;;;;;;2616887;47;19946;-73
2023/10/18 04:44:34;;;;;;;;;;;8.10;99.90;;;;;;2616748;47;19947;-71
2023/10/18 04:47:14;;;;;;;;;;;8.10;99.90;;;;;;2616678;47;20029;-73
2023/10/18 04:49:50;;;;;;;;;;;8.10;99.90;;;;;;2616730;47;19945;-72
2023/10/18 04:52:28;;;;;;;;;;;8.10;99.90;;;;;;2617188;54;19951;-74
2023/10/18 04:55:00;;;;;;;;;;;8.10;99.90;;;;;;2619293;54;20032;-71
2023/10/18 04:57:34;;;;;;;;;;;8.10;99.90;;;;;;2620233;54;20735;-72
2023/10/18 05:00:11;;;;;;;;;;;8.00;99.90;;;;;;2619585;54;19988;-72
2023/10/18 05:02:45;;;;;;;;;;;8.00;99.90;;;;;;2618098;47;19974;-75
2023/10/18 05:05:13;;;;;;;;;;;8.00;99.90;;;;;;2617631;54;20042;-72
2023/10/18 05:07:47;;;;;;;;;;;8.00;99.90;;;;;;2617066;47;19947;-72
2023/10/18 05:10:14;;;;;;;;;;;7.90;99.90;;;;;;2617082;47;19954;-73
2023/10/18 05:12:53;;;;;;;;;;;7.80;99.90;;;;;;2616329;47;19938;-71
2023/10/18 05:15:29;;;;;;;;;;;7.80;99.90;;;;;;2616130;54;19942;-73
2023/10/18 05:18:04;;;;;;;;;;;7.80;99.90;;;;;;2615845;50;19943;-72
2023/10/18 05:20:55;;;;;;;;;;;7.90;99.90;;;;;;2617357;47;19946;-72
2023/10/18 05:23:25;;;;;;;;;;;7.90;99.90;;;;;;2616275;39;20356;-72
2023/10/18 05:28:47;;;;;;;;;;;8.00;99.90;;;;;;2617258;54;19986;-72
2023/10/18 05:31:43;;;;;;;;;;;8.00;99.90;;;;;;2616345;47;19954;-71
2023/10/18 05:34:22;;;;;;;;;;;8.00;99.90;;;;;;2615236;54;19973;-72
2023/10/18 05:36:55;;;;;;;;;;;8.00;99.90;;;;;;2616447;54;19939;-74
2023/10/18 05:39:33;;;;;;;;;;;8.10;99.90;;;;;;2616667;47;20445;-73
2023/10/18 05:42:03;;;;;;;;;;;8.10;99.90;;;;;;2616177;47;19953;-73
2023/10/18 05:44:33;;;;;;;;;;;8.10;99.90;;;;;;2616782;47;20064;-73
2023/10/18 05:47:06;;;;;;;;;;;8.10;99.90;;;;;;2616812;54;19938;-72
2023/10/18 05:49:41;;;;;;;;;;;8.10;99.90;;;;;;2616906;47;19954;-73
2023/10/18 05:52:29;;;;;;;;;;;8.20;99.90;;;;;;2618459;54;19977;-74
2023/10/18 05:54:59;;;;;;;;;;;8.20;99.90;;;;;;2616760;47;19969;-73
2023/10/18 05:57:30;;;;;;;;;;;8.20;99.90;;;;;;2623871;54;20449;-73
2023/10/18 06:00:00;;;;;;;;;;;8.10;99.90;;;;;;2622375;47;19950;-73
2023/10/18 06:02:32;;;;;;;;;;;8.20;99.90;;;;;;2621809;47;19939;-72
2023/10/18 06:05:02;;;;;;;;;;;8.20;99.90;;;;;;2615697;47;20037;-74
2023/10/18 06:07:32;;;;;;;;;;;8.20;99.90;;;;;;2617822;39;20346;-67
2023/10/18 06:10:13;;;;;;;;;;;8.30;99.90;;;;;;2616423;47;19946;-66
2023/10/18 06:12:46;;;;;;;;;;;8.30;99.90;;;;;;2616084;47;19942;-65
2023/10/18 06:15:30;;;;;;;;;;;8.90;99.90;;;;;;2617282;54;20438;-68
2023/10/18 06:18:05;;;;;;;;;;;8.40;99.90;;;;;;2615653;54;19946;-66
2023/10/18 06:20:37;;;;;;;;;;;8.40;99.90;;;;;;2615110;39;20357;-73
2023/10/18 06:23:36;;;;;;;;;;;8.40;99.90;;;;;;2615891;47;19953;-69
2023/10/18 06:26:10;;;;;;;;;;;8.50;99.90;;;;;;2619991;39;20425;-78
2023/10/18 06:28:40;;;;;;;;;;;8.50;99.90;;;;;;2627926;47;19962;-78
2023/10/18 06:31:10;;;;;;;;;;;8.50;99.90;;;;;;2629594;47;19971;-80
2023/10/18 06:33:43;;;;;;;;;;;8.50;99.90;;;;;;2629768;54;19953;-80
2023/10/18 06:36:15;;;;;;;;;;;8.50;99.90;;;;;;2624299;47;20515;-74
2023/10/18 06:38:45;;;;;;;;;;;8.50;99.90;;;;;;2616983;47;19946;-74
2023/10/18 06:41:19;;;;;;;;;;;8.50;99.90;;;;;;2617135;47;20033;-74
2023/10/18 06:43:49;;;;;;;;;;;8.50;99.90;;;;;;2615713;54;20028;-74
2023/10/18 06:46:22;;;;;;;;;;;8.50;99.90;;;;;;2616442;47;19965;-76
2023/10/18 06:48:55;;;;;;;;;;;8.90;99.90;;;;;;2616813;47;19957;-73
2023/10/18 06:51:43;;;;;;;;;;;8.50;99.90;;;;;;2617443;47;19971;-74
2023/10/18 06:54:30;;;;;;;;;;;8.60;99.90;;;;;;2616838;50;19938;-73
2023/10/18 06:57:09;;;;;;;;;;;8.70;99.90;;;;;;2616432;54;19946;-73
2023/10/18 06:59:39;;;;;;;;;;;8.70;99.90;;;;;;2616995;54;19947;-73
2023/10/18 07:02:11;;;;;;;;;;;8.80;99.90;;;;;;2616633;54;19995;-73
2023/10/18 07:04:51;;;;;;;;;;;8.90;99.90;;;;;;2616465;47;19946;-72
2023/10/18 07:07:23;;;;;;;;;;;8.90;99.90;;;;;;2615794;47;19938;-73
2023/10/18 07:09:56;;;;;;;;;;;9.00;99.90;;;;;;2617402;54;19980;-74
2023/10/18 07:12:43;;;;;;;;;;;9.00;99.90;;;;;;2618158;47;19953;-73
2023/10/18 07:15:16;;;;;;;;;;;9.10;99.90;;;;;;2616458;54;19939;-74
2023/10/18 07:17:48;;;;;;;;;;;9.10;99.90;;;;;;2616840;47;20975;-73
2023/10/18 07:20:21;;;;;;;;;;;9.20;99.90;;;;;;2615547;47;19950;-73
2023/10/18 07:22:55;;;;;;;;;;;9.20;99.90;;;;;;2616411;47;19954;-73
2023/10/18 07:25:27;;;;;;;;;;;9.20;99.90;;;;;;2616440;54;20042;-73
2023/10/18 07:28:01;;;;;;;;;;;9.10;99.90;;;;;;2615232;47;20434;-73
2023/10/18 07:30:37;;;;;;;;;;;9.10;99.90;;;;;;2616519;47;20047;-73
2023/10/18 07:33:10;;;;;;;;;;;9.10;99.90;;;;;;2616252;54;19946;-73
2023/10/18 07:35:46;;;;;;;;;;;9.10;99.90;;;;;;2616548;47;19946;-73
2023/10/18 07:38:25;;;;;;;;;;;9.20;99.90;;;;;;2617569;47;19946;-75
2023/10/18 07:40:59;;;;;;;;;;;9.20;99.90;;;;;;2616939;47;19946;-73
2023/10/18 07:43:32;;;;;;;;;;;9.30;99.90;;;;;;2616878;54;19962;-73
2023/10/18 07:46:06;;;;;;;;;;;9.30;99.90;;;;;;2616983;47;20490;-73
2023/10/18 07:48:46;;;;;;;;;;;9.40;99.90;;;;;;2617107;39;20321;-74
2023/10/18 07:51:26;;;;;;;;;;;9.50;99.90;;;;;;2617028;47;19954;-73
2023/10/18 07:53:57;;;;;;;;;;;9.50;99.90;;;;;;2616572;47;20064;-73
2023/10/18 07:56:29;;;;;;;;;;;9.60;99.90;;;;;;2616919;54;20041;-73
2023/10/18 07:59:27;;;;;;;;;;;9.60;99.90;;;;;;2616707;39;20386;-73
2023/10/18 08:01:47;;;;;;;;;;;9.70;99.90;;;;;;2616767;54;19947;-74
2023/10/18 08:04:20;;;;;;;;;;;9.70;99.90;;;;;;2616059;54;19971;-73
2023/10/18 08:06:53;;;;;;;;;;;9.80;99.90;;;;;;2617154;39;20338;-73
2023/10/18 08:09:28;;;;;;;;;;;9.80;99.90;;;;;;2617069;39;20660;-73
2023/10/18 08:12:05;;;;;;;;;;;9.80;99.90;;;;;;2615849;54;19938;-73
2023/10/18 08:14:35;;;;;;;;;;;9.80;99.90;;;;;;2615612;54;20056;-75
2023/10/18 08:17:29;;;;;;;;;;;9.90;99.90;;;;;;2616604;39;20357;-72
2023/10/18 08:20:18;;;;;;;;;;;10.00;99.90;;;;;;2616279;49;19965;-74
2023/10/18 08:22:53;;;;;;;;;;;10.00;99.90;;;;;;2616917;47;19995;-74
2023/10/18 08:25:31;;;;;;;;;;;10.00;99.90;;;;;;2616874;47;19943;-75
2023/10/18 08:28:02;;;;;;;;;;;10.00;99.90;;;;;;2616505;47;19953;-75
2023/10/18 08:31:03;;;;;;;;;;;10.20;99.90;;;;;;2617619;39;20362;-73
2023/10/18 08:33:31;;;;;;;;;;;10.10;99.90;;;;;;2615875;54;19950;-72
2023/10/18 08:36:07;;;;;;;;;;;10.20;99.90;;;;;;2616557;47;20026;-74
2023/10/18 08:38:41;;;;;;;;;;;10.30;99.90;;;;;;2616457;54;19942;-73
2023/10/18 08:41:16;;;;;;;;;;;10.30;99.90;;;;;;2616089;47;19946;-73
2023/10/18 08:43:55;;;;;;;;;;;10.40;99.90;;;;;;2615708;46;19954;-72
2023/10/18 08:46:27;;;;;;;;;;;10.90;99.90;;;;;;2616159;54;20426;-73
2023/10/18 08:48:58;;;;;;;;;;;10.50;99.90;;;;;;2616767;39;20444;-73
2023/10/18 08:51:31;;;;;;;;;;;10.60;99.90;;;;;;2616556;47;19939;-73
2023/10/18 08:54:09;;;;;;;;;;;10.60;99.90;;;;;;2616108;48;19962;-73
2023/10/18 08:56:41;;;;;;;;;;;10.60;99.90;;;;;;2614812;47;19946;-73
2023/10/18 08:59:11;;;;;;;;;;;10.70;99.90;;;;;;2615730;54;19943;-74
2023/10/18 09:02:01;;;;;;;;;;;10.70;99.90;;;;;;2615896;47;19946;-73
2023/10/18 09:04:31;;;;;;;;;;;10.80;99.90;;;;;;2615501;54;19946;-74
2023/10/18 09:07:00;;;;;;;;;;;10.90;99.90;;;;;;2616318;54;20030;-74
2023/10/18 09:09:35;;;;;;;;;;;10.90;99.90;;;;;;2617291;47;20418;-74
2023/10/18 09:12:14;;;;;;;;;;;11.10;99.90;;;;;;2616494;47;19946;-75
2023/10/18 09:14:50;;;;;;;;;;;11.10;99.90;;;;;;2616261;47;19938;-74
2023/10/18 09:17:22;;;;;;;;;;;11.20;99.90;;;;;;2617086;54;19939;-73
2023/10/18 09:19:56;;;;;;;;;;;11.30;99.90;;;;;;2617138;49;19957;-73
2023/10/18 09:22:26;;;;;;;;;;;11.40;99.90;;;;;;2617562;54;19946;-73
2023/10/18 09:25:01;;;;;;;;;;;11.40;99.90;;;;;;2616415;47;19938;-76
2023/10/18 09:27:31;;;;;;;;;;;11.50;99.90;;;;;;2617175;54;19953;-75
2023/10/18 09:30:04;;;;;;;;;;;11.60;99.90;;;;;;2617336;47;19979;-74
2023/10/18 09:32:36;;;;;;;;;;;11.60;99.90;;;;;;2617185;46;19946;-73
2023/10/18 09:35:09;;;;;;;;;;;11.70;99.90;;;;;;2616125;54;20041;-73
2023/10/18 09:37:38;;;;;;;;;;;11.80;99.90;;;;;;2617542;46;19970;-73
2023/10/18 09:40:14;;;;;;;;;;;11.90;99.90;;;;;;2617204;47;19990;-73
2023/10/18 09:42:44;;;;;;;;;;;12.00;99.90;;;;;;2616492;48;19938;-73
2023/10/18 09:45:14;;;;;;;;;;;12.10;99.90;;;;;;2615992;47;19938;-74
2023/10/18 09:47:44;;;;;;;;;;;12.90;99.90;;;;;;2621709;54;19946;-74
2023/10/18 09:50:23;;;;;;;;;;;12.20;99.90;;;;;;2620070;54;19958;-75
2023/10/18 09:52:56;;;;;;;;;;;12.30;99.90;;;;;;2621490;54;19947;-76
2023/10/18 09:55:30;;;;;;;;;;;12.40;99.90;;;;;;2617339;47;19995;-73
2023/10/18 09:58:06;;;;;;;;;;;12.50;99.90;;;;;;2617230;47;19950;-73
2023/10/18 10:00:42;;;;;;;;;;;12.30;99.90;;;;;;2618355;47;19946;-74
2023/10/18 10:03:12;;;;;;;;;;;12.20;99.90;;;;;;2617886;47;20446;-77
2023/10/18 10:05:44;;;;;;;;;;;12.20;99.90;;;;;;2620372;54;20041;-75
2023/10/18 10:08:15;;;;;;;;;;;12.10;99.90;;;;;;2620043;54;19951;-75
2023/10/18 10:10:49;;;;;;;;;;;12.10;99.90;;;;;;2619272;53;19946;-76
2023/10/18 10:13:25;;;;;;;;;;;12.10;99.90;;;;;;2616767;54;19953;-75
2023/10/18 10:15:57;;;;;;;;;;;12.10;99.90;;;;;;2618788;47;19951;-76
2023/10/18 10:18:30;;;;;;;;;;;12.20;99.90;;;;;;2617345;54;20434;-75
2023/10/18 10:21:03;;;;;;;;;;;12.30;99.90;;;;;;2618085;47;19939;-79
2023/10/18 10:23:35;;;;;;;;;;;12.50;99.90;;;;;;2617426;47;20042;-77
2023/10/18 10:26:15;;;;;;;;;;;12.60;99.90;;;;;;2617329;47;19942;-77
2023/10/18 10:31:45;;;;;;;;;;;12.90;99.90;;;;;;2618252;47;19946;-78
2023/10/18 10:34:19;;;;;;;;;;;13.10;99.90;;;;;;2617847;47;20459;-79
2023/10/18 10:36:49;;;;;;;;;;;13.20;99.90;;;;;;2620100;54;19953;-78
2023/10/18 10:39:24;;;;;;;;;;;13.30;99.90;;;;;;2617092;47;19999;-78
2023/10/18 10:42:00;;;;;;;;;;;13.40;99.90;;;;;;2616965;47;19951;-77
2023/10/18 10:44:38;;;;;;;;;;;13.50;99.90;;;;;;2617246;47;19938;-78
2023/10/18 10:47:29;;;;;;;;;;;13.60;99.90;;;;;;2617585;54;20491;-78
2023/10/18 10:50:00;;;;;;;;;;;13.60;99.90;;;;;;2616932;47;19946;-74
2023/10/18 10:52:38;;;;;;;;;;;13.70;99.90;;;;;;2616587;54;20034;-73
2023/10/18 10:55:20;;;;;;;;;;;13.70;99.90;;;;;;2616251;47;19946;-72
2023/10/18 10:57:53;;;;;;;;;;;13.60;99.90;;;;;;2615703;54;19946;-74
2023/10/18 11:00:36;;;;;;;;;;;13.60;99.90;;;;;;2616204;54;19957;-73
2023/10/18 11:03:31;;;;;;;;;;;13.60;99.90;;;;;;2615577;47;19953;-73
2023/10/18 11:06:05;;;;;;;;;;;13.70;99.90;;;;;;2616006;54;19964;-74
2023/10/18 11:08:37;;;;;;;;;;;13.60;99.90;;;;;;2616272;54;20454;-73
2023/10/18 11:11:07;;;;;;;;;;;13.60;99.90;;;;;;2615886;47;20457;-73
2023/10/18 11:13:41;;;;;;;;;;;13.80;99.90;;;;;;2616227;54;19939;-73
2023/10/18 11:16:15;;;;;;;;;;;12.80;99.90;;;;;;2616418;54;19939;-73
2023/10/18 11:18:48;;;;;;;;;;;14.10;99.90;;;;;;2603043;47;19947;-73
2023/10/18 11:21:24;;;;;;;;;;;14.10;99.90;;;;;;2605773;47;20072;-74
2023/10/18 11:23:57;;;;;;;;;;;14.10;99.90;;;;;;2605382;47;20016;-74
2023/10/18 11:26:27;;;;;;;;;;;14.20;99.90;;;;;;2605873;54;20489;-75
2023/10/18 11:28:59;;;;;;;;;;;14.40;99.90;;;;;;2605980;54;19951;-74
2023/10/18 11:31:29;;;;;;;;;;;14.50;99.90;;;;;;2610820;47;20021;-73
2023/10/18 11:34:06;;;;;;;;;;;14.70;99.90;;;;;;2615259;47;19947;-72
2023/10/18 11:36:38;;;;;;;;;;;14.80;99.90;;;;;;2616497;54;19946;-73
2023/10/18 11:39:21;;;;;;;;;;;14.90;99.90;;;;;;2616221;47;19946;-72
2023/10/18 11:41:53;;;;;;;;;;;15.10;99.90;;;;;;2616553;54;20015;-75
2023/10/18 11:44:34;;;;;;;;;;;15.20;99.90;;;;;;2615723;47;19939;-73
2023/10/18 11:47:11;;;;;;;;;;;15.30;99.90;;;;;;2616483;54;20742;-76
2023/10/18 11:49:42;;;;;;;;;;;15.40;99.90;;;;;;2615563;47;19946;-76
2023/10/18 11:52:16;;;;;;;;;;;15.50;99.90;;;;;;2614097;47;19958;-76
2023/10/18 11:54:47;;;;;;;;;;;15.60;99.90;;;;;;2613908;47;19947;-78
2023/10/18 11:57:28;;;;;;;;;;;15.70;99.90;;;;;;2616173;47;19947;-78
2023/10/18 12:02:44;;;;;;;;;;;15.70;99.90;;;;;;2615444;54;19946;-76
2023/10/18 12:05:14;;;;;;;;;;;15.80;99.90;;;;;;2614064;47;20509;-76
2023/10/18 12:07:48;;;;;;;;;;;15.80;99.90;;;;;;2613700;54;19969;-75
2023/10/18 12:10:25;;;;;;;;;;;15.80;99.90;;;;;;2614739;47;19977;-80
2023/10/18 12:13:00;;;;;;;;;;;15.80;99.90;;;;;;2615908;54;19958;-77
2023/10/18 12:15:33;;;;;;;;;;;15.80;99.90;;;;;;2615493;39;20346;-77
2023/10/18 12:18:04;;;;;;;;;;;15.60;99.90;;;;;;2616759;47;20037;-76
2023/10/18 12:20:43;;;;;;;;;;;15.90;99.90;;;;;;2617867;47;19950;-75
2023/10/18 12:23:13;;;;;;;;;;;15.80;99.90;;;;;;2616385;54;19954;-70
2023/10/18 12:25:45;;;;;;;;;;;15.80;99.90;;;;;;2615395;47;19954;-72
2023/10/18 12:28:17;;;;;;;;;;;15.70;99.90;;;;;;2614922;47;19947;-71
2023/10/18 12:30:51;;;;;;;;;;;15.70;99.90;;;;;;2616506;54;19952;-74
2023/10/18 12:33:23;;;;;;;;;;;15.70;99.90;;;;;;2615547;54;19950;-74
2023/10/18 12:35:56;;;;;;;;;;;15.70;99.90;;;;;;2615828;54;20473;-71
2023/10/18 12:38:34;;;;;;;;;;;15.70;99.90;;;;;;2615436;54;19977;-72
2023/10/18 12:41:10;;;;;;;;;;;15.60;99.90;;;;;;2616073;54;19958;-72
2023/10/18 12:43:44;;;;;;;;;;;15.70;99.90;;;;;;2615381;54;20442;-71
2023/10/18 12:46:21;;;;;;;;;;;15.60;99.90;;;;;;2616129;54;19946;-72
2023/10/18 12:48:51;;;;;;;;;;;15.60;99.90;;;;;;2616150;54;19972;-72
2023/10/18 12:51:30;;;;;;;;;;;15.60;99.90;;;;;;2616755;47;20030;-72
2023/10/18 12:54:03;;;;;;;;;;;15.50;99.90;;;;;;2616308;54;19946;-72
2023/10/18 12:56:36;;;;;;;;;;;15.40;99.90;;;;;;2616369;47;19953;-71
2023/10/18 12:59:22;;;;;;;;;;;15.40;99.90;;;;;;2616256;47;19946;-71
2023/10/18 13:01:59;;;;;;;;;;;15.30;99.90;;;;;;2617785;54;19953;-73
2023/10/18 13:04:27;;;;;;;;;;;15.20;99.90;;;;;;2615819;54;20004;-72
2023/10/18 13:07:09;;;;;;;;;;;15.20;99.90;;;;;;2618115;39;20341;-73
2023/10/18 13:09:43;;;;;;;;;;;15.00;99.90;;;;;;2616276;47;20073;-71
2023/10/18 13:12:16;;;;;;;;;;;14.90;99.90;;;;;;2616756;54;19938;-72
2023/10/18 13:14:47;;;;;;;;;;;14.80;99.90;;;;;;2615520;47;19946;-72
2023/10/18 13:17:19;;;;;;;;;;;14.80;99.90;;;;;;2616440;47;19995;-73
2023/10/18 13:19:48;;;;;;;;;;;14.80;99.90;;;;;;2616711;47;20045;-74
2023/10/18 13:22:25;;;;;;;;;;;14.80;99.90;;;;;;2616717;47;19953;-71
2023/10/18 13:24:54;;;;;;;;;;;14.70;99.90;;;;;;2616719;54;19938;-71
2023/10/18 13:27:33;;;;;;;;;;;14.70;99.90;;;;;;2616874;47;19947;-71
2023/10/18 13:30:12;;;;;;;;;;;14.70;99.90;;;;;;2616581;54;20446;-71
2023/10/18 13:32:44;;;;;;;;;;;14.70;99.90;;;;;;2616735;47;19947;-71
2023/10/18 13:35:17;;;;;;;;;;;14.70;99.90;;;;;;2615894;54;19950;-70
2023/10/18 13:37:50;;;;;;;;;;;14.80;99.90;;;;;;2616610;54;20450;-71
2023/10/18 13:40:21;;;;;;;;;;;14.80;99.90;;;;;;2616679;54;19947;-71
2023/10/18 13:42:52;;;;;;;;;;;14.80;99.90;;;;;;2616669;54;20423;-72
2023/10/18 13:45:26;;;;;;;;;;;14.80;99.90;;;;;;2616310;54;20028;-72
2023/10/18 13:47:59;;;;;;;;;;;14.80;99.90;;;;;;2617081;54;19987;-71
2023/10/18 13:50:30;;;;;;;;;;;14.90;99.90;;;;;;2616237;47;19946;-71
2023/10/18 13:53:00;;;;;;;;;;;15.90;99.90;;;;;;2616873;53;19946;-72
2023/10/18 13:55:30;;;;;;;;;;;14.90;99.90;;;;;;2616152;47;19958;-74
2023/10/18 13:58:00;;;;;;;;;;;14.90;99.90;;;;;;2616923;47;19947;-72
2023/10/18 14:00:34;;;;;;;;;;;14.80;99.90;;;;;;2616959;39;20423;-72
2023/10/18 14:03:08;;;;;;;;;;;14.80;99.90;;;;;;2616515;54;19954;-72
2023/10/18 14:05:40;;;;;;;;;;;14.80;99.90;;;;;;2615990;54;19946;-72
2023/10/18 14:08:12;;;;;;;;;;;14.70;99.90;;;;;;2616906;54;19946;-73
2023/10/18 14:10:42;;;;;;;;;;;14.70;99.90;;;;;;2615953;47;19939;-73
2023/10/18 14:13:12;;;;;;;;;;;14.70;99.90;;;;;;2617885;39;20326;-73
2023/10/18 14:15:43;;;;;;;;;;;14.70;99.90;;;;;;2617118;54;19943;-72
2023/10/18 14:18:16;;;;;;;;;;;14.70;99.90;;;;;;2616494;54;19953;-71
2023/10/18 14:20:52;;;;;;;;;;;14.70;99.90;;;;;;2616691;47;19947;-71
2023/10/18 14:23:27;;;;;;;;;;;14.70;99.90;;;;;;2616868;54;19938;-71
2023/10/18 14:25:58;;;;;;;;;;;14.70;99.90;;;;;;2616965;54;19938;-72
2023/10/18 14:28:28;;;;;;;;;;;14.70;99.90;;;;;;2617078;54;19954;-71
2023/10/18 14:30:59;;;;;;;;;;;14.60;99.90;;;;;;2617126;54;19953;-71
2023/10/18 14:33:32;;;;;;;;;;;14.60;99.90;;;;;;2616363;54;19938;-71
2023/10/18 14:36:09;;;;;;;;;;;14.60;99.90;;;;;;2616693;54;19971;-71
2023/10/18 14:38:39;;;;;;;;;;;14.50;99.90;;;;;;2615515;54;19954;-72
2023/10/18 14:41:13;;;;;;;;;;;14.40;99.90;;;;;;2616791;47;20018;-73
2023/10/18 14:44:00;;;;;;;;;;;14.40;99.90;;;;;;2616590;47;19946;-74
2023/10/18 14:46:31;;;;;;;;;;;14.40;99.90;;;;;;2616564;54;20538;-73
2023/10/18 14:49:03;;;;;;;;;;;14.40;99.90;;;;;;2615964;47;19946;-72
2023/10/18 14:51:33;;;;;;;;;;;14.40;99.90;;;;;;2616596;54;19946;-71
2023/10/18 14:54:03;;;;;;;;;;;14.40;99.90;;;;;;2616003;54;19967;-72
2023/10/18 14:59:20;;;;;;;;;;;14.40;99.90;;;;;;2615588;54;19971;-74
2023/10/18 15:01:50;;;;;;;;;;;14.40;99.90;;;;;;2617917;47;19945;-74
2023/10/18 15:06:57;;;;;;;;;;;14.40;99.90;;;;;;2608026;54;19946;-75
2023/10/18 15:09:27;;;;;;;;;;;14.40;99.90;;;;;;2616128;54;19957;-74
2023/10/18 15:11:57;;;;;;;;;;;14.30;99.90;;;;;;2616341;54;19954;-76
2023/10/18 15:14:26;;;;;;;;;;;14.30;99.90;;;;;;2615018;47;19953;-74
2023/10/18 15:16:56;;;;;;;;;;;14.30;99.90;;;;;;2616800;54;19963;-74
2023/10/18 15:19:27;;;;;;;;;;;14.30;99.90;;;;;;2616172;54;19945;-74
2023/10/18 15:21:59;;;;;;;;;;;14.30;99.90;;;;;;2616680;54;20465;-73
2023/10/18 15:24:29;;;;;;;;;;;14.30;99.90;;;;;;2615492;54;19951;-73
2023/10/18 15:26:59;;;;;;;;;;;14.20;99.90;;;;;;2616838;39;20154;-73
2023/10/18 15:29:29;;;;;;;;;;;14.20;99.90;;;;;;2616279;54;19938;-74
2023/10/18 15:31:59;;;;;;;;;;;14.20;99.90;;;;;;2616165;54;20083;-75
2023/10/18 15:34:30;;;;;;;;;;;14.20;99.90;;;;;;2615098;46;19962;-74
2023/10/18 15:37:06;;;;;;;;;;;14.20;99.90;;;;;;2616813;39;20455;-74
2023/10/18 15:39:36;;;;;;;;;;;14.20;99.90;;;;;;2616244;47;19958;-75
2023/10/18 15:42:06;;;;;;;;;;;14.20;99.90;;;;;;2616944;47;20025;-75
2023/10/18 15:44:37;;;;;;;;;;;14.10;99.90;;;;;;2616308;54;20468;-77
2023/10/18 15:47:08;;;;;;;;;;;14.10;99.90;;;;;;2617281;46;19939;-75
2023/10/18 15:49:38;;;;;;;;;;;14.10;99.90;;;;;;2616111;54;19946;-74
2023/10/18 15:52:10;;;;;;;;;;;14.10;99.90;;;;;;2616648;39;20397;-74
2023/10/18 15:54:40;;;;;;;;;;;14.10;99.90;;;;;;2615362;47;19953;-74
2023/10/18 15:57:10;;;;;;;;;;;14.10;99.90;;;;;;2615606;54;19939;-75
2023/10/18 15:59:40;;;;;;;;;;;14.00;99.90;;;;;;2614333;47;19946;-75
2023/10/18 16:02:11;;;;;;;;;;;14.00;99.90;;;;;;2617057;47;19939;-75
2023/10/18 16:04:45;;;;;;;;;;;14.00;99.90;;;;;;2616920;54;19947;-76
2023/10/18 16:07:18;;;;;;;;;;;14.00;99.90;;;;;;2618650;54;20299;-77
2023/10/18 16:09:48;;;;;;;;;;;14.00;99.90;;;;;;2616584;47;19946;-72
2023/10/18 16:12:17;;;;;;;;;;;14.00;99.90;;;;;;2616144;54;19947;-74
2023/10/18 16:14:47;;;;;;;;;;;14.00;99.90;;;;;;2613680;54;19939;-75
2023/10/18 16:17:17;;;;;;;;;;;14.00;99.90;;;;;;2616365;49;19947;-74
2023/10/18 16:19:50;;;;;;;;;;;13.90;99.90;;;;;;2615495;39;20138;-74
2023/10/18 16:22:22;;;;;;;;;;;13.90;99.90;;;;;;2614710;47;19957;-76
2023/10/18 16:24:52;;;;;;;;;;;13.90;99.90;;;;;;2601796;47;19946;-75
2023/10/18 16:27:22;;;;;;;;;;;14.00;99.90;;;;;;2615880;47;19951;-74
2023/10/18 16:29:52;;;;;;;;;;;13.90;99.90;;;;;;2615900;47;19947;-75
2023/10/18 16:32:23;;;;;;;;;;;13.90;99.90;;;;;;2614681;54;19974;-76
2023/10/18 16:34:54;;;;;;;;;;;13.90;99.90;;;;;;2614520;31;20610;-76
2023/10/18 16:37:27;;;;;;;;;;;14.00;99.90;;;;;;2616581;39;20640;-75
2023/10/18 16:39:57;;;;;;;;;;;14.00;99.90;;;;;;2615794;47;20490;-76
2023/10/18 16:42:26;;;;;;;;;;;14.00;99.90;;;;;;2616189;39;20350;-75
2023/10/18 16:44:58;;;;;;;;;;;14.00;99.90;;;;;;2615159;54;19974;-75
2023/10/18 16:47:27;;;;;;;;;;;14.00;99.90;;;;;;2617499;54;19954;-78
2023/10/18 16:49:58;;;;;;;;;;;14.00;99.90;;;;;;2617553;47;19946;-76
2023/10/18 16:52:45;;;;;;;;;;;14.00;99.90;;;;;;2618506;54;19943;-75
2023/10/18 16:55:17;;;;;;;;;;;14.00;99.90;;;;;;2617533;47;19951;-76
2023/10/18 16:57:48;;;;;;;;;;;14.00;99.90;;;;;;2617154;54;19954;-75
2023/10/18 17:00:18;;;;;;;;;;;14.00;99.90;;;;;;2616713;47;19964;-74
2023/10/18 17:02:49;;;;;;;;;;;14.00;99.90;;;;;;2617115;47;19938;-76
2023/10/18 17:05:23;;;;;;;;;;;14.00;99.90;;;;;;2607682;47;19946;-75
2023/10/18 17:07:56;;;;;;;;;;;14.00;99.90;;;;;;2606766;39;20458;-77
2023/10/18 17:10:26;;;;;;;;;;;14.00;99.90;;;;;;2606559;54;19953;-75
2023/10/18 17:12:55;;;;;;;;;;;14.20;99.90;;;;;;2605640;54;19953;-75
2023/10/18 17:15:25;;;;;;;;;;;14.00;99.90;;;;;;2606302;54;19950;-73
2023/10/18 17:17:55;;;;;;;;;;;14.00;99.90;;;;;;2605874;47;20400;-72
2023/10/18 17:20:26;;;;;;;;;;;14.00;99.90;;;;;;2605825;47;20442;-72
2023/10/18 17:22:59;;;;;;;;;;;14.00;99.90;;;;;;2606364;47;19946;-74
2023/10/18 17:25:30;;;;;;;;;;;14.00;99.90;;;;;;2606976;39;20433;-70
2023/10/18 17:27:59;;;;;;;;;;;14.00;99.90;;;;;;2606924;39;20362;-74
2023/10/18 17:30:29;;;;;;;;;;;14.00;99.90;;;;;;2608986;47;19946;-75
2023/10/18 17:32:59;;;;;;;;;;;14.00;99.90;;;;;;2610337;46;19956;-76
2023/10/18 17:35:29;;;;;;;;;;;14.00;99.90;;;;;;2607691;54;19962;-75
2023/10/18 17:38:02;;;;;;;;;;;14.00;99.90;;;;;;2605836;47;19954;-76
2023/10/18 17:40:33;;;;;;;;;;;13.90;99.90;;;;;;2607477;47;19965;-76
2023/10/18 17:43:04;;;;;;;;;;;14.00;99.90;;;;;;2607353;47;19954;-76
2023/10/18 17:45:36;;;;;;;;;;;14.00;99.90;;;;;;2605581;47;19954;-73
2023/10/18 17:48:10;;;;;;;;;;;14.00;99.90;;;;;;2613557;47;19958;-73
2023/10/18 17:50:40;;;;;;;;;;;14.00;99.90;;;;;;2616490;46;19957;-75
2023/10/18 17:53:13;;;;;;;;;;;13.90;99.90;;;;;;2616903;54;19955;-75
2023/10/18 17:55:44;;;;;;;;;;;13.90;99.90;;;;;;2616625;54;20027;-73
2023/10/18 17:58:17;;;;;;;;;;;13.90;99.90;;;;;;2617299;47;19947;-74
2023/10/18 18:00:52;;;;;;;;;;;13.90;99.90;;;;;;2616922;54;20426;-73
2023/10/18 18:03:22;;;;;;;;;;;13.90;99.90;;;;;;2616185;48;19969;-74
2023/10/18 18:05:53;;;;;;;;;;;13.90;99.90;;;;;;2619093;39;20412;-74
2023/10/18 18:08:26;;;;;;;;;;;13.90;99.90;;;;;;2619118;54;19946;-74
2023/10/18 18:10:56;;;;;;;;;;;14.10;99.90;;;;;;2616853;39;20342;-72
2023/10/18 18:13:26;;;;;;;;;;;13.90;99.90;;;;;;2617489;54;19947;-72
2023/10/18 18:15:57;;;;;;;;;;;13.90;99.90;;;;;;2616966;39;20372;-72
2023/10/18 18:18:27;;;;;;;;;;;13.80;99.90;;;;;;2616231;54;19969;-76
2023/10/18 18:20:56;;;;;;;;;;;13.90;99.90;;;;;;2617265;47;19974;-75
2023/10/18 18:23:29;;;;;;;;;;;13.90;99.90;;;;;;2618698;54;20010;-77
2023/10/18 18:26:06;;;;;;;;;;;13.90;99.90;;;;;;2619897;46;19962;-72
2023/10/18 18:28:36;;;;;;;;;;;13.80;99.90;;;;;;2618072;47;19954;-76
2023/10/18 18:31:06;;;;;;;;;;;13.80;99.90;;;;;;2623334;47;19945;-76
2023/10/18 18:33:36;;;;;;;;;;;13.80;99.90;;;;;;2622018;47;19970;-75
2023/10/18 18:36:07;;;;;;;;;;;13.80;99.90;;;;;;2618177;54;19947;-74
2023/10/18 18:38:39;;;;;;;;;;;13.80;99.90;;;;;;2617853;47;19946;-76
2023/10/18 18:41:09;;;;;;;;;;;13.80;99.90;;;;;;2618216;47;19946;-77
2023/10/18 18:43:38;;;;;;;;;;;13.80;99.90;;;;;;2618064;47;19950;-78
2023/10/18 18:46:09;;;;;;;;;;;13.80;99.90;;;;;;2617225;54;19953;-76
2023/10/18 18:48:46;;;;;;;;;;;13.80;99.90;;;;;;2617629;54;20504;-73
2023/10/18 18:51:15;;;;;;;;;;;13.80;99.90;;;;;;2616934;39;20346;-75
2023/10/18 18:53:48;;;;;;;;;;;13.80;99.90;;;;;;2615762;39;20374;-74
2023/10/18 18:56:17;;;;;;;;;;;13.80;99.90;;;;;;2616487;47;19950;-77
2023/10/18 18:58:50;;;;;;;;;;;13.80;99.90;;;;;;2617455;47;19947;-77
2023/10/18 19:01:22;;;;;;;;;;;13.80;99.90;;;;;;2617720;47;19939;-77
2023/10/18 19:03:52;;;;;;;;;;;13.80;99.90;;;;;;2616157;54;19946;-76
2023/10/18 19:06:22;;;;;;;;;;;13.80;99.90;;;;;;2617290;47;19954;-75
2023/10/18 19:08:54;;;;;;;;;;;13.80;99.90;;;;;;2616634;54;20015;-74
2023/10/18 19:11:26;;;;;;;;;;;13.80;99.90;;;;;;2617073;54;19962;-73
2023/10/18 19:13:59;;;;;;;;;;;14.00;99.90;;;;;;2616413;54;20049;-74
2023/10/18 19:16:28;;;;;;;;;;;13.80;99.90;;;;;;2617050;47;19958;-75
2023/10/18 19:18:59;;;;;;;;;;;13.80;99.90;;;;;;2617162;46;19947;-76
2023/10/18 19:21:30;;;;;;;;;;;13.80;99.90;;;;;;2617448;47;19947;-75
2023/10/18 19:24:03;;;;;;;;;;;13.70;99.90;;;;;;2616489;47;19958;-74
2023/10/18 19:26:32;;;;;;;;;;;13.00;99.90;;;;;;2617869;54;19987;-77